Map

Track Data

SID SEASON NUMBER BASIN SUBBASIN NAME ISO_TIME NATURE LAT LON WMO_WIND WMO_PRES WMO_AGENCY TRACK_TYPE DIST2LAND LANDFALL IFLAG USA_AGENCY USA_ATCF_ID USA_LAT USA_LON USA_RECORD USA_STATUS USA_WIND USA_PRES USA_SSHS USA_R34_NE USA_R34_SE USA_R34_SW USA_R34_NW USA_R50_NE USA_R50_SE USA_R50_SW USA_R50_NW USA_R64_NE USA_R64_SE USA_R64_SW USA_R64_NW USA_POCI USA_ROCI USA_RMW USA_EYE TOKYO_LAT TOKYO_LON TOKYO_GRADE TOKYO_WIND TOKYO_PRES TOKYO_R50_DIR TOKYO_R50_LONG TOKYO_R50_SHORT TOKYO_R30_DIR TOKYO_R30_LONG TOKYO_R30_SHORT TOKYO_LAND CMA_LAT CMA_LON CMA_CAT CMA_WIND CMA_PRES HKO_LAT HKO_LON HKO_CAT HKO_WIND HKO_PRES NEWDELHI_LAT NEWDELHI_LON NEWDELHI_GRADE NEWDELHI_WIND NEWDELHI_PRES NEWDELHI_CI NEWDELHI_DP NEWDELHI_POCI REUNION_LAT REUNION_LON REUNION_TYPE REUNION_WIND REUNION_PRES REUNION_TNUM REUNION_CI REUNION_RMW REUNION_R34_NE REUNION_R34_SE REUNION_R34_SW REUNION_R34_NW REUNION_R50_NE REUNION_R50_SE REUNION_R50_SW REUNION_R50_NW REUNION_R64_NE REUNION_R64_SE REUNION_R64_SW REUNION_R64_NW BOM_LAT BOM_LON BOM_TYPE BOM_WIND BOM_PRES BOM_TNUM BOM_CI BOM_RMW BOM_R34_NE BOM_R34_SE BOM_R34_SW BOM_R34_NW BOM_R50_NE BOM_R50_SE BOM_R50_SW BOM_R50_NW BOM_R64_NE BOM_R64_SE BOM_R64_SW BOM_R64_NW BOM_ROCI BOM_POCI BOM_EYE BOM_POS_METHOD BOM_PRES_METHOD NADI_LAT NADI_LON NADI_CAT NADI_WIND NADI_PRES WELLINGTON_LAT WELLINGTON_LON WELLINGTON_WIND WELLINGTON_PRES DS824_LAT DS824_LON DS824_STAGE DS824_WIND DS824_PRES TD9636_LAT TD9636_LON TD9636_STAGE TD9636_WIND TD9636_PRES TD9635_LAT TD9635_LON TD9635_WIND TD9635_PRES TD9635_ROCI NEUMANN_LAT NEUMANN_LON NEUMANN_CLASS NEUMANN_WIND NEUMANN_PRES MLC_LAT MLC_LON MLC_CLASS MLC_WIND MLC_PRES USA_GUST BOM_GUST BOM_GUST_PER REUNION_GUST REUNION_GUST_PER USA_SEAHGT USA_SEARAD_NE USA_SEARAD_SE USA_SEARAD_SW USA_SEARAD_NW STORM_SPEED STORM_DIR
1925175N19072 1925 25 NI AS NOT_NAMED 1925-06-24 00:00:00 TS 18.7000 71.6000 main 128 94 _________O____ -1 18.7000 71.6000 TC 30 7 47
1925175N19072 1925 25 NI AS NOT_NAMED 1925-06-24 03:00:00 TS 18.9536 71.8899 main 94 57 _________PO___ -1 19.0803 72.0348 TC 30 18.7000 71.6000 1 9 43
1925175N19072 1925 25 NI AS NOT_NAMED 1925-06-24 06:00:00 TS 19.3584 72.2527 main 43 20 _________OP___ -1 19.5000 72.4000 TC 30 19.1459 72.0318 1 11 35
1925175N19072 1925 25 NI AS NOT_NAMED 1925-06-24 09:00:00 TS 19.8168 72.5222 main 20 10 _________PP___ -1 19.9847 72.6196 TC 30 19.5928 72.3922 1 10 20
1925175N19072 1925 25 NI AS NOT_NAMED 1925-06-24 12:00:00 TS 20.2716 72.6034 main 20 20 _________OP___ -1 20.5000 72.6000 TC 30 20.0433 72.6067 1 10 356
1925175N19072 1925 25 NI AS NOT_NAMED 1925-06-24 15:00:00 TS 20.7688 72.4453 main 38 0 _________PO___ -1 21.0376 72.2907 TC 30 20.5000 72.6000 1 11 332
1925175N19072 1925 25 NI AS NOT_NAMED 1925-06-24 18:00:00 TS 21.2292 72.0632 main 0 0 _________OP___ -1 21.5000 71.8000 TC 30 20.9585 72.3263 1 12 316
1925175N19072 1925 25 NI AS NOT_NAMED 1925-06-24 21:00:00 TS 21.6060 71.5736 main 0 0 _________PP___ -1 21.8252 71.2850 TC 30 21.3867 71.8622 1 11 305
1925175N19072 1925 25 NI AS NOT_NAMED 1925-06-25 00:00:00 TS 21.8732 71.0583 main 0 0 _________OP___ -1 22.0000 70.8000 TC 30 21.7464 71.3165 1 10 295
1925175N19072 1925 25 NI AS NOT_NAMED 1925-06-25 03:00:00 TS 22.0186 70.6311 main 0 0 _________PO___ -1 22.0373 70.4622 TC 30 22.0000 70.8000 1 7 285
1925175N19072 1925 25 NI AS NOT_NAMED 1925-06-25 06:00:00 TS 22.0495 70.3345 main 0 0 _________OP___ -1 22.0000 70.2000 TC 30 22.0990 70.4690 1 5 273
1925175N19072 1925 25 NI AS NOT_NAMED 1925-06-25 09:00:00 TS 22.0446 70.0652 main 0 0 _________PP___ -1 21.9924 69.9425 TC 30 22.0967 70.1880 1 5 267
1925175N19072 1925 25 NI AS NOT_NAMED 1925-06-25 12:00:00 TS 22.0230 69.8191 main 0 0 _________OP___ -1 22.0000 69.7000 TC 30 22.0461 69.9382 1 5 267
1925175N19072 1925 25 NI AS NOT_NAMED 1925-06-25 15:00:00 TS 22.0212 69.5750 main 0 0 _________PO___ -1 22.0425 69.4500 TC 30 22.0000 69.7000 1 5 276
1925175N19072 1925 25 NI AS NOT_NAMED 1925-06-25 18:00:00 TS 22.0677 69.3214 main 0 0 _________OP___ -1 22.1000 69.2000 TC 30 22.0355 69.4429 1 5 282
1925175N19072 1925 25 NI AS NOT_NAMED 1925-06-25 21:00:00 TS 22.1174 69.0713 main 10 10 _________PP___ -1 22.1500 68.9500 TC 30 22.0848 69.1926 1 5 283
1925175N19072 1925 25 NI AS NOT_NAMED 1925-06-26 00:00:00 TS 22.1709 68.8230 main 15 15 _________OP___ -1 22.2000 68.7000 TC 30 22.1417 68.9460 1 5 283
1925175N19072 1925 25 NI AS NOT_NAMED 1925-06-26 03:00:00 TS 22.2250 68.5750 main 32 32 _________PO___ -1 22.2500 68.4500 TC 30 22.2000 68.7000 1 5 283
1925175N19072 1925 25 NI AS NOT_NAMED 1925-06-26 06:00:00 TS 22.2750 68.3209 main 61 61 _________OP___ -1 22.3000 68.2000 TC 30 22.2500 68.4418 1 5 282
1925175N19072 1925 25 NI AS NOT_NAMED 1925-06-26 09:00:00 TS 22.3250 68.0637 main 82 82 _________PP___ -1 22.3500 67.9425 TC 30 22.3000 68.1850 1 5 282
1925175N19072 1925 25 NI AS NOT_NAMED 1925-06-26 12:00:00 TS 22.3750 67.8178 main 113 113 _________OP___ -1 22.4000 67.7000 TC 30 22.3500 67.9356 1 4 283
1925175N19072 1925 25 NI AS NOT_NAMED 1925-06-26 15:00:00 TS 22.4250 67.5962 main 134 134 _________PO___ -1 22.4499 67.4925 TC 30 22.4000 67.7000 1 4 284
1925175N19072 1925 25 NI AS NOT_NAMED 1925-06-26 18:00:00 TS 22.4715 67.4043 main 145 145 _________OP___ -1 22.5000 67.3000 TC 30 22.4500 67.4825 1 4 285
1925175N19072 1925 25 NI AS NOT_NAMED 1925-06-26 21:00:00 TS 22.5201 67.2091 main 150 143 _________PP___ -1 22.5501 67.1025 TC 30 22.5001 67.2801 1 4 285
1925175N19072 1925 25 NI AS NOT_NAMED 1925-06-27 00:00:00 TS 22.5667 67.0251 main 147 147 _________OP___ -1 22.6000 66.9000 TC 30 22.5501 67.0876 1 3 286
1925175N19072 1925 25 NI AS NOT_NAMED 1925-06-27 03:00:00 NR 22.6000 66.9000 main 152 __________O___ -1 TC 22.6000 66.9000 1 2 285

About IBTrACS Database

This database is a web-friendly format of International Best Track Archive for Climate Stewardship (IBTrACS), a global best track data archive curated by NOAA dating back to 1842.

Updated: 2021-10-21